Chicago (ORD/KORD)

Information

Location
Chicago-O'Hare, IL
Local Time
20:40 / 8:40 pm
GMT Time
01:40 / 1:40 am
No FAA reported delays
METAR KORD 270051Z 31015G22KT 10SM FEW070 FEW095 18/06 A3004 RMK AO2 SLP172 T01830056
TAF KORD 262340Z 2700/2806 35014G21KT P6SM SCT050 BKN080 FM270100 34009KT P6SM SCT080 FM270400 29006KT P6SM FEW250 FM271700 26009KT P6SM FEW050 SCT250